Time;durP1;ratioP1;P1;durP2;ratioP2;P2;SDS_P1;SDS_P2;PMS_P1;PMS_P2;Temp;Humidity;BMP_temperature;BMP_pressure;BME280_temperature;BME280_humidity;BME280_pressure;Samples;Min_cycle;Max_cycle;Signal;HPM_P1;HPM_P2
2021/04/15 00:00:35;;;;;;;12.55;9.35;;;;;;;1.82;100.00;97083.56;5037952;28;20093;-47
2021/04/15 00:03:04;;;;;;;12.68;9.93;;;;;;;1.90;100.00;97081.44;5030453;28;20075;-48
2021/04/15 00:05:32;;;;;;;12.63;9.95;;;;;;;1.94;100.00;97084.72;5028016;28;20073;-49
2021/04/15 00:08:00;;;;;;;13.27;10.70;;;;;;;1.79;100.00;97083.69;5042405;28;20071;-47
2021/04/15 00:10:32;;;;;;;10.85;9.15;;;;;;;1.84;100.00;97077.38;5023114;28;20073;-48
2021/04/15 00:13:00;;;;;;;11.93;9.45;;;;;;;1.79;100.00;97074.16;5034578;28;20076;-49
2021/04/15 00:15:28;;;;;;;13.05;9.70;;;;;;;1.77;100.00;97067.34;5030551;28;20081;-52
2021/04/15 00:20:52;;;;;;;11.95;9.40;;;;;;;1.69;100.00;97061.66;5818146;22;20076;-52
2021/04/15 00:23:20;;;;;;;11.85;9.38;;;;;;;1.64;100.00;97060.13;5019944;28;20542;-56
2021/04/15 00:25:48;;;;;;;14.30;10.27;;;;;;;1.40;100.00;97064.75;5024753;28;20072;-47
2021/04/15 00:28:16;;;;;;;12.23;9.25;;;;;;;1.54;100.00;97058.91;5025196;28;20068;-48
2021/04/15 00:30:44;;;;;;;15.48;9.80;;;;;;;1.67;100.00;97059.16;5027528;28;20088;-50
2021/04/15 00:33:11;;;;;;;15.50;9.65;;;;;;;1.66;100.00;97058.31;5043262;28;20128;-56
2021/04/15 00:35:39;;;;;;;12.43;9.85;;;;;;;1.64;100.00;97056.69;5043905;28;20143;-55
2021/04/15 00:38:08;;;;;;;11.20;9.00;;;;;;;1.63;100.00;97060.22;5041913;28;20068;-51
2021/04/15 00:40:37;;;;;;;12.32;9.80;;;;;;;1.55;100.00;97059.75;5036830;28;20069;-54
2021/04/15 00:43:26;;;;;;;16.95;10.13;;;;;;;1.52;100.00;97060.75;5024945;28;20072;-48
2021/04/15 00:45:55;;;;;;;12.68;9.88;;;;;;;1.50;100.00;97057.38;5040801;28;20457;-52
2021/04/15 00:48:30;;;;;;;13.20;9.57;;;;;;;1.10;100.00;97056.69;5050420;28;20191;-50
2021/04/15 00:51:00;;;;;;;12.88;10.18;;;;;;;1.20;100.00;97054.47;5041865;28;20061;-54
2021/04/15 00:53:30;;;;;;;14.63;10.55;;;;;;;1.32;100.00;97058.28;5046286;28;20068;-51
2021/04/15 00:56:16;;;;;;;12.52;9.98;;;;;;;1.23;100.00;97058.69;5035379;28;20545;-55
2021/04/15 00:58:45;;;;;;;14.40;10.30;;;;;;;1.19;100.00;97060.59;5046911;28;20076;-50
2021/04/15 01:01:13;;;;;;;14.32;10.10;;;;;;;1.15;100.00;97052.09;5044122;28;20075;-51
2021/04/15 01:03:40;;;;;;;15.77;10.52;;;;;;;1.09;100.00;97051.56;5046972;28;20642;-49
2021/04/15 01:06:08;;;;;;;12.13;9.57;;;;;;;1.02;100.00;97063.13;5047246;28;20079;-52
2021/04/15 01:08:36;;;;;;;12.27;10.18;;;;;;;0.72;100.00;97055.84;5042432;28;20069;-50
2021/04/15 01:11:09;;;;;;;13.85;10.13;;;;;;;0.77;100.00;97064.28;5043761;28;20470;-50
2021/04/15 01:13:48;;;;;;;13.50;10.48;;;;;;;0.70;100.00;97055.91;5042943;28;20489;-48
2021/04/15 01:16:26;;;;;;;16.23;10.85;;;;;;;0.55;100.00;97056.63;5043101;28;20064;-52
2021/04/15 01:19:00;;;;;;;14.15;10.63;;;;;;;0.24;100.00;97064.88;5044478;28;20156;-52
2021/04/15 01:21:57;;;;;;;13.25;10.70;;;;;;;0.33;100.00;97056.72;5047671;28;20088;-49
2021/04/15 01:24:29;;;;;;;13.90;10.98;;;;;;;0.27;100.00;97053.53;5042753;28;21522;-48
2021/04/15 01:27:32;;;;;;;14.18;10.32;;;;;;;0.16;100.00;97064.38;5046762;28;20068;-49
2021/04/15 01:30:08;;;;;;;16.38;10.45;;;;;;;0.08;100.00;97061.28;5039238;28;20522;-52
2021/04/15 01:32:38;;;;;;;14.45;11.48;;;;;;;0.01;100.00;97059.88;5037126;28;20072;-54
2021/04/15 01:35:09;;;;;;;14.15;11.18;;;;;;;0.42;100.00;97056.31;5043525;28;20114;-53
2021/04/15 01:37:42;;;;;;;16.55;11.55;;;;;;;0.28;100.00;97061.28;5038031;28;21454;-51
2021/04/15 01:40:14;;;;;;;17.20;11.73;;;;;;;0.25;100.00;97057.97;5044329;28;20068;-53
2021/04/15 01:42:47;;;;;;;19.25;12.50;;;;;;;0.41;100.00;97051.19;5047408;28;20479;-49
2021/04/15 01:45:16;;;;;;;17.77;12.90;;;;;;;0.21;100.00;97054.66;5042697;28;20477;-50
2021/04/15 01:47:47;;;;;;;16.80;12.82;;;;;;;0.40;100.00;97049.50;5042779;28;20073;-51
2021/04/15 01:50:19;;;;;;;17.42;12.77;;;;;;;0.27;100.00;97051.78;5045287;28;20060;-55
2021/04/15 01:52:50;;;;;;;18.02;12.95;;;;;;;0.22;100.00;97049.41;5042990;28;20537;-50
2021/04/15 01:55:20;;;;;;;;;;;;;;;0.28;100.00;97045.72;5045757;28;20061;-51
2021/04/15 01:57:58;;;;;;;15.63;11.25;;;;;;;0.27;100.00;97048.34;5045102;28;19964;-52
2021/04/15 02:00:27;;;;;;;17.15;12.35;;;;;;;0.04;100.00;97055.41;5038210;28;20212;-52
2021/04/15 02:02:57;;;;;;;17.95;12.45;;;;;;;0.20;100.00;97042.59;5048341;28;20454;-49
2021/04/15 02:05:27;;;;;;;14.32;11.43;;;;;;;0.43;100.00;97039.84;5044977;28;20081;-50
2021/04/15 02:07:59;;;;;;;14.10;10.82;;;;;;;0.47;100.00;97040.53;5047160;28;20072;-52
2021/04/15 02:10:27;;;;;;;14.00;11.05;;;;;;;0.39;100.00;97045.22;5046283;28;20056;-49
2021/04/15 02:12:57;;;;;;;17.52;10.95;;;;;;;0.50;100.00;97045.59;5048975;28;20084;-49
2021/04/15 02:15:28;;;;;;;15.18;11.18;;;;;;;0.53;100.00;97048.06;5048994;28;20475;-50
2021/04/15 02:17:57;;;;;;;16.55;11.05;;;;;;;0.41;100.00;97043.41;5046321;28;20065;-51
2021/04/15 02:20:26;;;;;;;17.40;11.38;;;;;;;0.38;100.00;97036.63;5047120;28;20065;-52
2021/04/15 02:23:03;;;;;;;18.95;12.15;;;;;;;0.47;100.00;97043.97;5045735;28;20457;-50
2021/04/15 02:25:34;;;;;;;15.02;10.98;;;;;;;0.47;100.00;97045.72;5043271;28;20091;-55
2021/04/15 02:28:06;;;;;;;15.70;10.23;;;;;;;0.49;100.00;97035.28;5046867;28;20450;-51
2021/04/15 02:30:38;;;;;;;18.27;10.10;;;;;;;0.51;100.00;97044.66;5046932;28;20080;-52
2021/04/15 02:33:13;;;;;;;15.63;10.48;;;;;;;0.47;100.00;97043.97;5045674;28;20576;-51
2021/04/15 02:35:43;;;;;;;13.50;10.57;;;;;;;0.27;100.00;97043.16;5045958;28;20061;-49
2021/04/15 02:38:11;;;;;;;;;;;;;;;0.25;100.00;97043.25;5045775;28;20064;-48
2021/04/15 02:40:39;;;;;;;17.73;10.93;;;;;;;0.26;100.00;97044.09;5044946;28;19975;-48
2021/04/15 02:43:11;;;;;;;14.35;10.68;;;;;;;0.35;100.00;97046.28;5045365;28;20080;-48
2021/04/15 02:45:43;;;;;;;13.23;9.60;;;;;;;0.25;100.00;97050.19;5048026;28;20080;-48
2021/04/15 02:48:16;;;;;;;13.80;10.10;;;;;;;0.22;100.00;97046.81;5036392;28;20057;-56
2021/04/15 02:50:44;;;;;;;17.23;10.50;;;;;;;0.12;100.00;97040.34;5043205;28;20083;-56
2021/04/15 02:53:15;;;;;;;13.35;10.20;;;;;;;0.11;100.00;97049.03;5043890;28;20068;-48
2021/04/15 02:55:48;;;;;;;11.85;10.13;;;;;;;0.11;100.00;97049.03;5039362;28;20061;-53
2021/04/15 02:58:21;;;;;;;15.27;10.02;;;;;;;0.10;100.00;97042.13;5045627;28;20170;-47
2021/04/15 03:00:51;;;;;;;14.00;9.68;;;;;;;0.06;100.00;97040.59;5040462;28;20072;-50
2021/04/15 03:03:21;;;;;;;13.77;10.40;;;;;;;-0.04;100.00;97044.47;5040942;28;20470;-51
2021/04/15 03:05:50;;;;;;;12.55;9.52;;;;;;;-0.26;100.00;97048.00;5043333;28;20087;-52
2021/04/15 03:08:21;;;;;;;12.88;9.52;;;;;;;-0.34;100.00;97050.06;5040878;28;20061;-48
2021/04/15 03:10:51;;;;;;;18.98;10.48;;;;;;;-0.40;100.00;97046.88;5046756;28;20071;-50
2021/04/15 03:13:21;;;;;;;15.68;11.18;;;;;;;-0.33;100.00;97051.75;5039401;28;20057;-50
2021/04/15 03:15:52;;;;;;;12.98;9.90;;;;;;;-0.26;100.00;97053.16;5023219;28;20155;-49
2021/04/15 03:18:22;;;;;;;11.82;9.55;;;;;;;-0.32;100.00;97052.56;5041872;28;20472;-58
2021/04/15 03:20:52;;;;;;;13.43;9.90;;;;;;;-0.43;100.00;97052.19;5043849;28;20506;-49
2021/04/15 03:23:33;;;;;;;14.13;10.43;;;;;;;-0.49;100.00;97055.84;5014760;28;20060;-52
2021/04/15 03:26:06;;;;;;;15.00;10.13;;;;;;;-0.59;100.00;97055.38;5041535;28;20450;-49
2021/04/15 03:28:36;;;;;;;17.73;10.43;;;;;;;-0.59;100.00;97051.94;5041484;28;20064;-52
2021/04/15 03:31:09;;;;;;;15.05;9.85;;;;;;;-0.58;100.00;97054.50;5030976;28;20075;-48
2021/04/15 03:33:40;;;;;;;14.45;10.55;;;;;;;-0.50;100.00;97061.97;5048170;28;20088;-51
2021/04/15 03:36:13;;;;;;;11.57;9.43;;;;;;;-0.53;100.00;97060.31;5046585;28;20076;-57
2021/04/15 03:38:46;;;;;;;14.38;10.27;;;;;;;-0.53;100.00;97055.16;5045885;28;20510;-54
2021/04/15 03:41:15;;;;;;;14.43;10.13;;;;;;;-0.39;100.00;97056.34;5046141;28;20064;-52
2021/04/15 03:43:48;;;;;;;14.23;10.43;;;;;;;-0.65;100.00;97060.84;5039259;28;20063;-52
2021/04/15 03:46:23;;;;;;;13.45;9.82;;;;;;;-0.61;100.00;97062.38;5047490;28;20438;-49
2021/04/15 03:48:53;;;;;;;12.15;9.32;;;;;;;-0.56;100.00;97062.19;5044827;28;20076;-53
2021/04/15 03:51:24;;;;;;;12.35;9.15;;;;;;;-0.50;100.00;97062.78;5046760;28;20080;-49
2021/04/15 03:53:53;;;;;;;11.90;9.57;;;;;;;-0.55;100.00;97056.97;5041342;28;20482;-57
2021/04/15 03:56:24;;;;;;;14.88;9.50;;;;;;;-0.58;100.00;97056.25;5044245;28;20080;-52
2021/04/15 03:58:52;;;;;;;;;;;;;;;-0.45;100.00;97054.81;5036628;28;20495;-53
2021/04/15 04:01:22;;;;;;;11.20;8.88;;;;;;;-0.41;100.00;97059.00;5045691;28;19952;-48
2021/04/15 04:04:03;;;;;;;9.90;8.48;;;;;;;-0.34;100.00;97059.59;5036992;28;20076;-54
2021/04/15 04:06:32;;;;;;;10.38;8.60;;;;;;;-0.32;100.00;97065.53;5049476;28;20530;-52
2021/04/15 04:09:00;;;;;;;12.98;9.27;;;;;;;-0.53;100.00;97056.91;5043533;28;20071;-50
2021/04/15 04:11:31;;;;;;;11.65;8.98;;;;;;;-0.36;100.00;97067.41;5046267;28;20065;-59
2021/04/15 04:13:59;;;;;;;;;;;;;;;-0.36;100.00;97061.38;5045164;28;20086;-52
2021/04/15 04:16:31;;;;;;;11.60;9.40;;;;;;;-0.16;100.00;97063.16;5046269;28;20019;-52
2021/04/15 04:19:03;;;;;;;14.80;9.32;;;;;;;-0.10;100.00;97058.56;5038425;28;20093;-56
2021/04/15 04:21:38;;;;;;;18.20;9.10;;;;;;;-0.17;100.00;97058.88;5049061;28;20064;-49
2021/04/15 04:24:10;;;;;;;12.68;8.48;;;;;;;-0.07;100.00;97055.84;5046071;28;20521;-49
2021/04/15 04:26:40;;;;;;;28.80;24.00;;;;;;;-0.22;100.00;97055.63;5045038;28;20071;-54
2021/04/15 04:29:30;;;;;;;13.88;9.93;;;;;;;-0.16;100.00;97056.22;5044998;28;20069;-55
2021/04/15 04:32:02;;;;;;;11.38;9.23;;;;;;;-0.09;100.00;97055.06;5023621;28;20068;-53
2021/04/15 04:34:32;;;;;;;12.55;9.60;;;;;;;0.14;100.00;97059.28;5043613;28;20438;-51
2021/04/15 04:37:00;;;;;;;12.90;9.02;;;;;;;0.47;100.00;97049.16;5046673;28;20060;-50
2021/04/15 04:39:30;;;;;;;12.18;9.15;;;;;;;0.43;100.00;97052.81;5042952;28;20076;-50
2021/04/15 04:42:04;;;;;;;10.48;9.38;;;;;;;0.36;100.00;97048.78;5044296;28;20072;-57
2021/04/15 04:44:37;;;;;;;11.57;8.68;;;;;;;0.51;100.00;97054.22;5028752;28;20075;-54
2021/04/15 04:47:11;;;;;;;12.18;8.93;;;;;;;0.39;100.00;97048.66;5044006;28;20068;-52
2021/04/15 04:49:40;;;;;;;12.25;8.38;;;;;;;0.57;100.00;97054.78;5043339;28;20458;-54
2021/04/15 04:52:32;;;;;;;12.35;7.93;;;;;;;0.71;100.00;97052.41;5037676;28;20048;-55
2021/04/15 04:55:01;;;;;;;;;;;;;;;0.68;100.00;97059.50;5038715;28;20513;-48
2021/04/15 04:57:35;;;;;;;10.80;8.02;;;;;;;0.71;100.00;97056.75;5043905;28;20353;-57
2021/04/15 05:00:06;;;;;;;13.35;9.18;;;;;;;1.49;100.00;97057.47;5042038;28;20076;-57
2021/04/15 05:02:35;;;;;;;12.00;7.97;;;;;;;2.64;100.00;97051.63;5043989;28;20057;-50
2021/04/15 05:05:06;;;;;;;12.32;8.35;;;;;;;3.20;100.00;97043.38;5044596;28;20100;-50
2021/04/15 05:07:36;;;;;;;9.52;7.32;;;;;;;3.71;100.00;97048.31;5038860;28;20069;-52
2021/04/15 05:10:06;;;;;;;10.20;7.53;;;;;;;3.97;100.00;97046.81;5045074;28;20065;-50
2021/04/15 05:12:35;;;;;;;9.23;7.57;;;;;;;4.29;98.74;97043.13;5042915;28;20069;-53
2021/04/15 05:15:05;;;;;;;10.52;7.82;;;;;;;4.82;95.41;97046.06;5026425;28;20094;-51
2021/04/15 05:17:35;;;;;;;11.57;7.80;;;;;;;5.69;85.05;97037.88;5043971;28;20072;-52
2021/04/15 05:20:04;;;;;;;;;;;;;;;6.61;76.74;97036.97;5045327;28;20067;-55
2021/04/15 05:22:35;;;;;;;8.25;7.22;;;;;;;6.67;72.80;97038.31;5036106;28;19952;-51
2021/04/15 05:25:05;;;;;;;9.98;7.78;;;;;;;5.15;84.42;97048.31;5048646;28;20457;-51
2021/04/15 05:27:33;;;;;;;;;;;;;;;4.57;94.66;97049.31;5046493;28;20465;-51
2021/04/15 05:30:26;;;;;;;11.20;6.95;;;;;;;4.18;100.00;97060.38;5049504;28;19948;-51
2021/04/15 05:33:00;;;;;;;11.52;7.65;;;;;;;3.78;100.00;97063.53;5039510;28;20072;-52
2021/04/15 05:35:32;;;;;;;11.38;7.65;;;;;;;3.44;100.00;97067.22;5047369;28;20072;-54
2021/04/15 05:37:59;;;;;;;9.52;7.40;;;;;;;3.30;100.00;97072.34;5046413;28;20461;-51
2021/04/15 05:40:27;;;;;;;12.00;8.20;;;;;;;3.09;100.00;97069.16;5028991;28;20071;-52
2021/04/15 05:43:05;;;;;;;9.93;7.82;;;;;;;2.98;100.00;97067.13;5046169;28;20557;-55
2021/04/15 05:45:33;;;;;;;10.70;7.85;;;;;;;2.91;100.00;97067.53;5051815;28;20068;-54
2021/04/15 05:48:03;;;;;;;12.20;8.35;;;;;;;2.87;100.00;97072.09;5047659;28;20064;-52
2021/04/15 05:50:33;;;;;;;11.43;8.02;;;;;;;2.87;100.00;97066.88;5047329;28;20068;-50
2021/04/15 05:53:04;;;;;;;12.57;8.00;;;;;;;2.87;100.00;97069.47;5035405;28;20071;-51
2021/04/15 05:55:35;;;;;;;10.40;8.50;;;;;;;3.02;100.00;97071.25;5049580;28;20087;-54
2021/04/15 05:58:06;;;;;;;12.80;8.48;;;;;;;2.92;100.00;97067.44;5046047;28;20490;-52
2021/04/15 06:00:39;;;;;;;14.00;8.93;;;;;;;3.02;100.00;97068.63;5043592;28;20056;-54
2021/04/15 06:03:21;;;;;;;11.82;8.07;;;;;;;3.12;100.00;97071.59;5028873;28;20067;-52
2021/04/15 06:05:54;;;;;;;13.80;8.13;;;;;;;3.26;100.00;97065.63;5047123;28;20064;-52
2021/04/15 06:08:23;;;;;;;12.18;8.55;;;;;;;3.57;100.00;97067.34;5038223;28;20064;-54
2021/04/15 06:10:52;;;;;;;10.73;8.73;;;;;;;3.48;100.00;97073.94;5049428;28;20447;-57
2021/04/15 06:13:24;;;;;;;12.48;8.05;;;;;;;3.23;100.00;97076.22;5046628;28;20067;-51
2021/04/15 06:15:57;;;;;;;11.75;7.75;;;;;;;3.52;100.00;97074.63;5047843;28;20080;-55
2021/04/15 06:18:29;;;;;;;11.90;7.97;;;;;;;3.67;100.00;97078.94;5050966;28;20453;-55
2021/04/15 06:20:59;;;;;;;11.00;8.48;;;;;;;3.47;100.00;97077.44;5044474;28;20456;-57
2021/04/15 06:23:29;;;;;;;17.00;9.35;;;;;;;3.76;100.00;97075.00;5047414;28;20530;-56
2021/04/15 06:25:57;;;;;;;13.20;9.02;;;;;;;3.94;100.00;97078.31;5048136;28;20060;-56
2021/04/15 06:28:26;;;;;;;14.32;8.80;;;;;;;3.74;100.00;97077.66;5045628;28;20072;-53
2021/04/15 06:31:18;;;;;;;12.77;9.38;;;;;;;3.93;100.00;97087.06;5044357;28;20068;-52
2021/04/15 06:33:47;;;;;;;13.57;9.60;;;;;;;4.14;100.00;97083.22;5035524;28;20072;-53
2021/04/15 06:36:27;;;;;;;11.63;8.55;;;;;;;4.45;100.00;97078.78;5039681;28;20433;-53
2021/04/15 06:38:59;;;;;;;15.73;8.15;;;;;;;4.11;100.00;97079.94;5030038;28;20065;-54
2021/04/15 06:41:48;;;;;;;14.00;9.18;;;;;;;4.26;100.00;97090.31;5042634;28;20068;-50
2021/04/15 06:44:30;;;;;;;14.10;8.85;;;;;;;4.15;100.00;97089.28;5047443;28;20076;-51
2021/04/15 06:47:12;;;;;;;12.10;8.80;;;;;;;4.58;100.00;97086.75;5042366;28;20060;-54
2021/04/15 06:49:55;;;;;;;10.82;8.15;;;;;;;4.53;100.00;97084.38;5040859;28;20057;-56
2021/04/15 06:52:28;;;;;;;18.52;9.02;;;;;;;4.54;100.00;97080.84;5043459;28;20060;-51
2021/04/15 06:55:11;;;;;;;12.40;8.80;;;;;;;4.81;100.00;97087.94;5046366;28;20073;-52
2021/04/15 06:58:20;;;;;;;12.82;8.82;;;;;;;4.82;99.08;97081.78;5043172;28;20326;-55
2021/04/15 07:01:14;;;;;;;14.20;8.73;;;;;;;4.67;100.00;97088.78;4994877;28;20194;-51
2021/04/15 07:04:11;;;;;;;14.43;9.10;;;;;;;4.88;100.00;97090.09;5046176;28;20064;-50
2021/04/15 07:06:47;;;;;;;10.80;8.45;;;;;;;4.87;100.00;97092.81;5000797;28;20312;-51
2021/04/15 07:09:42;;;;;;;10.77;7.95;;;;;;;4.85;100.00;97094.66;5047171;28;20119;-52
2021/04/15 07:12:29;;;;;;;12.13;8.40;;;;;;;5.34;100.00;97083.78;5027420;28;20546;-52
2021/04/15 07:15:02;;;;;;;10.43;8.23;;;;;;;5.49;96.88;97088.03;5044255;28;20064;-51
2021/04/15 07:17:42;;;;;;;12.35;8.32;;;;;;;5.43;96.28;97084.03;5042736;28;20061;-51
2021/04/15 07:20:44;;;;;;;14.55;8.68;;;;;;;5.59;94.22;97086.50;5047302;28;20060;-56
2021/04/15 07:23:42;;;;;;;13.85;9.05;;;;;;;5.25;93.59;97095.66;5043289;28;20068;-49
2021/04/15 07:26:42;;;;;;;11.55;8.20;;;;;;;5.75;87.40;97094.22;5047495;28;20057;-54
2021/04/15 07:29:40;;;;;;;10.65;8.38;;;;;;;5.50;91.14;97094.94;5046908;28;20068;-53
2021/04/15 07:32:32;;;;;;;10.88;8.38;;;;;;;5.59;86.75;97104.00;4997883;28;20068;-62
2021/04/15 07:35:11;;;;;;;12.75;8.57;;;;;;;6.32;82.71;97096.59;5048215;28;20552;-53
2021/04/15 07:37:48;;;;;;;14.13;9.25;;;;;;;5.34;91.22;97102.09;5045964;28;20064;-60
2021/04/15 07:40:37;;;;;;;11.82;8.82;;;;;;;5.68;89.46;97100.78;5043750;28;20064;-52
2021/04/15 07:43:13;;;;;;;12.23;8.77;;;;;;;5.67;89.68;97096.47;5023012;28;20067;-52
2021/04/15 07:45:46;;;;;;;12.55;8.40;;;;;;;6.49;83.14;97095.44;5043068;28;20637;-55
2021/04/15 07:48:50;;;;;;;12.05;8.30;;;;;;;6.20;83.71;97101.81;5043764;28;20478;-54
2021/04/15 07:51:40;;;;;;;11.20;8.52;;;;;;;6.42;84.39;97102.06;5025890;28;20468;-57
2021/04/15 07:54:50;;;;;;;11.85;7.88;;;;;;;6.83;77.71;97091.38;5042554;28;20072;-52
2021/04/15 07:57:51;;;;;;;11.77;8.23;;;;;;;7.07;74.58;97101.94;5044734;28;20095;-54
2021/04/15 08:00:45;;;;;;;11.45;8.27;;;;;;;7.37;72.97;97106.81;5044553;28;20441;-58
2021/04/15 08:03:52;;;;;;;11.85;8.00;;;;;;;7.08;72.63;97100.97;5040654;28;20065;-52
2021/04/15 08:06:30;;;;;;;12.02;7.78;;;;;;;7.01;75.30;97096.28;5043924;28;20260;-56
2021/04/15 08:09:21;;;;;;;10.27;7.90;;;;;;;7.19;75.76;97100.25;5035802;28;20451;-55
2021/04/15 08:11:53;;;;;;;13.18;8.10;;;;;;;6.97;76.07;97105.31;5037760;28;20065;-59
2021/04/15 08:14:58;;;;;;;10.25;7.65;;;;;;;6.43;75.93;97101.09;5043595;28;20061;-55
2021/04/15 08:17:42;;;;;;;10.15;8.15;;;;;;;7.49;73.55;97109.50;5045112;28;20542;-54
2021/04/15 08:20:31;;;;;;;12.07;7.80;;;;;;;7.33;70.69;97099.28;5042625;28;20490;-50
2021/04/15 08:23:37;;;;;;;8.90;7.68;;;;;;;8.01;67.19;97109.19;5036854;28;20084;-49
2021/04/15 08:26:17;;;;;;;11.93;6.78;;;;;;;8.19;64.73;97104.38;5045826;28;20071;-49
2021/04/15 08:29:07;;;;;;;10.93;8.13;;;;;;;7.85;64.75;97114.75;5043940;28;20076;-56
2021/04/15 08:31:47;;;;;;;11.13;7.60;;;;;;;8.04;59.57;97111.59;5038843;28;20041;-55
2021/04/15 08:34:33;;;;;;;9.95;7.57;;;;;;;7.70;64.51;97107.97;5028014;28;20072;-55
2021/04/15 08:37:11;;;;;;;10.00;7.35;;;;;;;8.35;66.11;97104.06;5045993;28;20084;-54
2021/04/15 08:39:46;;;;;;;9.73;7.28;;;;;;;8.24;63.74;97102.25;5043630;28;20084;-53
2021/04/15 08:42:23;;;;;;;10.35;6.93;;;;;;;8.84;61.22;97096.91;5044352;28;20473;-54
2021/04/15 08:45:00;;;;;;;10.27;6.47;;;;;;;8.59;54.21;97088.25;5044077;28;20064;-54
2021/04/15 08:47:49;;;;;;;8.68;6.53;;;;;;;8.52;53.66;97094.94;5045446;28;20502;-53
2021/04/15 08:50:25;;;;;;;10.82;6.93;;;;;;;9.19;54.57;97095.03;5043399;28;20072;-51
2021/04/15 08:53:00;;;;;;;11.40;7.53;;;;;;;8.48;53.79;97094.34;5041505;28;20080;-53
2021/04/15 08:55:36;;;;;;;8.93;6.55;;;;;;;9.07;51.26;97092.50;5039185;28;20569;-58
2021/04/15 08:58:54;;;;;;;8.20;6.30;;;;;;;10.22;49.47;97079.66;5045420;28;20084;-54
2021/04/15 09:01:25;;;;;;;10.07;6.32;;;;;;;9.82;47.37;97078.63;5035293;28;20069;-53
2021/04/15 09:03:56;;;;;;;8.32;6.45;;;;;;;9.26;47.75;97085.69;5048064;28;20474;-55
2021/04/15 09:06:28;;;;;;;8.93;5.50;;;;;;;9.72;47.21;97075.91;5044917;28;20088;-51
2021/04/15 09:09:25;;;;;;;7.32;5.28;;;;;;;10.15;45.39;97083.78;5028210;28;20052;-50
2021/04/15 09:12:02;;;;;;;8.80;5.28;;;;;;;9.80;43.86;97076.09;4995534;28;20069;-58
2021/04/15 09:14:39;;;;;;;8.30;6.10;;;;;;;9.25;45.89;97072.63;5042730;28;20076;-53
2021/04/15 09:17:10;;;;;;;10.68;5.70;;;;;;;10.26;46.63;97076.81;5039700;28;20065;-53
2021/04/15 09:19:53;;;;;;;8.15;5.95;;;;;;;10.29;42.74;97074.75;5038418;28;20071;-50
2021/04/15 09:22:47;;;;;;;6.35;5.07;;;;;;;9.94;42.79;97070.56;5039487;28;20072;-52
2021/04/15 09:25:19;;;;;;;9.32;5.78;;;;;;;10.38;42.23;97079.25;5045211;28;20065;-57
2021/04/15 09:27:49;;;;;;;8.52;6.00;;;;;;;10.89;40.46;97064.41;5044172;28;20091;-53
2021/04/15 09:30:21;;;;;;;8.27;6.57;;;;;;;9.72;39.66;97068.84;5039239;28;20071;-57
2021/04/15 09:32:57;;;;;;;10.10;5.82;;;;;;;10.36;39.71;97065.38;5043502;28;20069;-58
2021/04/15 09:35:36;;;;;;;7.95;5.53;;;;;;;10.77;38.59;97060.19;5044418;28;20111;-55
2021/04/15 09:38:35;;;;;;;9.05;5.75;;;;;;;9.68;42.04;97063.94;5042752;28;20069;-54
2021/04/15 09:41:40;;;;;;;6.13;5.40;;;;;;;9.99;39.21;97065.75;5037820;28;20061;-54
2021/04/15 09:44:15;;;;;;;7.30;5.40;;;;;;;10.15;38.43;97067.09;5004557;28;20072;-60
2021/04/15 09:46:51;;;;;;;7.53;5.60;;;;;;;10.54;40.32;97070.06;5040921;28;20067;-53
2021/04/15 09:49:32;;;;;;;8.25;6.05;;;;;;;10.99;36.16;97060.03;5042556;28;20079;-52
2021/04/15 09:52:04;;;;;;;;;;;;;;;10.28;35.54;97066.97;5037325;28;20087;-55
2021/04/15 09:54:37;;;;;;;6.15;4.97;;;;;;;10.50;37.05;97064.22;5047531;28;19948;-51
2021/04/15 09:57:13;;;;;;;6.65;5.28;;;;;;;10.96;37.21;97064.72;5036963;28;20072;-53
2021/04/15 10:00:07;;;;;;;6.25;5.13;;;;;;;10.44;42.11;97065.56;5045452;28;20077;-51
2021/04/15 10:02:39;;;;;;;6.03;4.30;;;;;;;9.75;39.73;97076.47;5042055;28;20098;-53
2021/04/15 10:05:11;;;;;;;7.13;3.38;;;;;;;8.68;42.53;97102.53;5045585;28;20076;-53
2021/04/15 10:07:42;;;;;;;4.93;4.28;;;;;;;8.19;47.36;97096.50;5041216;28;20073;-58
2021/04/15 10:10:13;;;;;;;;;;;;;;;7.77;58.21;97098.69;5046164;28;20079;-51
2021/04/15 10:12:59;;;;;;;6.00;5.40;;;;;;;6.19;71.80;97124.53;5048829;28;19948;-55
2021/04/15 10:15:30;;;;;;;6.72;5.88;;;;;;;5.26;85.07;97107.78;5047767;28;20679;-56
2021/04/15 10:18:12;;;;;;;9.88;6.22;;;;;;;5.26;99.25;97106.94;5044108;28;20071;-62
2021/04/15 10:21:16;;;;;;;6.88;6.15;;;;;;;5.38;91.89;97100.97;5044713;28;20068;-54
2021/04/15 10:24:11;;;;;;;6.22;5.63;;;;;;;5.51;83.01;97094.03;5014472;28;20068;-55
2021/04/15 10:27:28;;;;;;;6.40;5.80;;;;;;;5.49;94.17;97093.25;5044890;28;20079;-54
2021/04/15 10:30:27;;;;;;;7.32;6.35;;;;;;;6.01;97.62;97083.84;5046417;28;20061;-51
2021/04/15 10:33:22;;;;;;;6.72;6.03;;;;;;;6.35;89.64;97082.44;5007668;28;20064;-49
2021/04/15 10:36:06;;;;;;;8.15;7.15;;;;;;;7.18;88.12;97076.75;5046522;28;20471;-55
2021/04/15 10:38:56;;;;;;;7.78;6.88;;;;;;;7.24;73.29;97071.91;5040064;28;20069;-53
2021/04/15 10:41:59;;;;;;;9.60;6.73;;;;;;;6.56;69.33;97069.66;5049302;28;20443;-52
2021/04/15 10:45:09;;;;;;;7.47;6.28;;;;;;;7.41;71.31;97069.88;5045221;28;20528;-56
2021/04/15 10:47:49;;;;;;;7.63;6.28;;;;;;;8.02;65.43;97063.59;5044333;28;20178;-55
2021/04/15 10:50:29;;;;;;;7.50;6.70;;;;;;;8.53;59.69;97059.81;5038886;28;21245;-52
2021/04/15 10:53:09;;;;;;;6.35;5.72;;;;;;;7.60;61.53;97062.31;5041377;28;20069;-54
2021/04/15 10:55:43;;;;;;;6.95;6.15;;;;;;;8.67;64.34;97059.63;5045343;28;20075;-57
2021/04/15 10:58:30;;;;;;;7.85;6.18;;;;;;;10.04;56.40;97051.34;5046901;28;20056;-56
2021/04/15 11:01:17;;;;;;;7.93;5.78;;;;;;;10.29;62.50;97052.81;5045228;28;20101;-60
2021/04/15 11:03:45;;;;;;;5.78;5.25;;;;;;;9.24;51.64;97060.44;5045673;28;20085;-55
2021/04/15 11:06:39;;;;;;;7.32;5.13;;;;;;;9.56;47.26;97051.75;5041968;28;20631;-59
2021/04/15 11:09:21;;;;;;;5.80;5.18;;;;;;;9.28;46.83;97053.97;5043270;28;20095;-57
2021/04/15 11:11:56;;;;;;;6.63;5.70;;;;;;;9.23;49.03;97056.13;5040629;28;20077;-53
2021/04/15 11:14:25;;;;;;;6.70;5.35;;;;;;;8.73;44.93;97063.53;5047771;28;20083;-56
2021/04/15 11:16:54;;;;;;;6.22;4.90;;;;;;;7.79;46.27;97062.66;5043672;28;20071;-60
2021/04/15 11:19:25;;;;;;;6.03;5.43;;;;;;;8.86;44.75;97053.75;5041741;28;20091;-55
2021/04/15 11:21:56;;;;;;;6.47;5.53;;;;;;;7.98;48.05;97058.69;5043518;28;20473;-56
2021/04/15 11:24:28;;;;;;;6.40;5.05;;;;;;;8.30;47.26;97054.50;5047243;28;20076;-51
2021/04/15 11:26:57;;;;;;;5.80;5.20;;;;;;;7.80;53.29;97060.88;5036451;28;20084;-51
2021/04/15 11:29:45;;;;;;;7.22;5.15;;;;;;;7.52;65.07;97059.44;5042934;28;20072;-53
2021/04/15 11:32:25;;;;;;;7.03;5.30;;;;;;;7.48;68.31;97060.59;5042802;28;20064;-48
2021/04/15 11:35:14;;;;;;;6.75;5.38;;;;;;;7.79;67.15;97060.03;5048734;28;20123;-60
2021/04/15 11:37:44;;;;;;;6.07;4.90;;;;;;;8.16;68.72;97059.13;5039537;28;20057;-56
2021/04/15 11:40:18;;;;;;;7.15;5.18;;;;;;;7.30;74.47;97063.59;5044515;28;20510;-55
2021/04/15 11:42:46;;;;;;;7.72;5.45;;;;;;;7.46;77.33;97059.88;5045430;28;20073;-56
2021/04/15 11:45:26;;;;;;;7.85;5.22;;;;;;;7.59;81.82;97060.66;5041401;28;20519;-55
2021/04/15 11:48:09;;;;;;;5.97;4.93;;;;;;;7.66;75.60;97061.06;5044900;28;20069;-54
2021/04/15 11:50:41;;;;;;;5.95;5.05;;;;;;;7.38;77.49;97057.81;5040887;28;20485;-55
2021/04/15 11:53:37;;;;;;;5.97;5.38;;;;;;;7.63;72.01;97051.59;5041680;28;20068;-53
2021/04/15 11:56:31;;;;;;;6.13;5.07;;;;;;;7.72;71.99;97050.13;5039489;28;20451;-49
2021/04/15 11:59:14;;;;;;;7.10;5.38;;;;;;;8.05;60.92;97047.63;5039257;28;20065;-57
2021/04/15 12:01:42;;;;;;;5.43;4.80;;;;;;;8.15;56.37;97034.63;5040265;28;20072;-57
2021/04/15 12:04:15;;;;;;;7.15;4.70;;;;;;;8.54;57.87;97029.97;5046554;28;20475;-55
2021/04/15 12:06:50;;;;;;;7.90;5.45;;;;;;;8.87;52.86;97033.53;5047943;28;20111;-57
2021/04/15 12:09:19;;;;;;;6.10;4.55;;;;;;;9.52;43.35;97024.84;5044524;28;21500;-52
2021/04/15 12:12:09;;;;;;;5.63;4.50;;;;;;;9.40;45.85;97025.84;5046309;28;20067;-51
2021/04/15 12:14:37;;;;;;;5.20;4.55;;;;;;;9.09;46.65;97025.66;5044091;28;20061;-55
2021/04/15 12:17:12;;;;;;;6.70;4.90;;;;;;;10.20;45.78;97015.69;5046036;28;20072;-56